Time;durP1;ratioP1;P1;durP2;ratioP2;P2;SDS_P1;SDS_P2;PMS_P1;PMS_P2;Temp;Humidity;BMP_temperature;BMP_pressure;BME280_temperature;BME280_humidity;BME280_pressure;Samples;Min_cycle;Max_cycle;Signal;HPM_P1;HPM_P2
2022/01/14 00:01:54;;;;;;;102.03;46.07;;;-2.50;99.90;;;;;;5078268;28;20201;-72
2022/01/14 00:04:21;;;;;;;102.63;44.90;;;-2.50;99.90;;;;;;5082059;28;20263;-72
2022/01/14 00:06:50;;;;;;;102.43;42.60;;;-2.50;99.90;;;;;;5081959;28;20201;-72
2022/01/14 00:09:17;;;;;;;89.33;41.80;;;-2.60;99.90;;;;;;5081316;28;20197;-72
2022/01/14 00:11:49;;;;;;;98.50;43.87;;;-2.70;99.90;;;;;;5080484;28;20239;-74
2022/01/14 00:14:24;;;;;;;93.80;41.80;;;-2.80;99.90;;;;;;5076262;28;20315;-73
2022/01/14 00:16:51;;;;;;;98.33;45.30;;;-2.80;99.90;;;;;;5075774;28;20199;-74
2022/01/14 00:19:19;;;;;;;98.80;42.97;;;-2.90;99.90;;;;;;5076057;28;20193;-71
2022/01/14 00:21:46;;;;;;;91.53;41.83;;;-2.80;99.90;;;;;;5075508;28;20203;-73
2022/01/14 00:24:25;;;;;;;98.17;43.10;;;-2.80;99.90;;;;;;5074995;28;20195;-73
2022/01/14 00:32:28;;;;;;;96.70;42.83;;;-2.90;99.90;;;;;;5076141;28;20311;-72
2022/01/14 00:34:54;;;;;;;103.80;44.80;;;-3.00;99.90;;;;;;5075297;28;20674;-72
2022/01/14 00:37:21;;;;;;;95.10;41.87;;;-3.00;99.90;;;;;;5074930;28;20266;-72
2022/01/14 00:39:49;;;;;;;94.30;41.33;;;-3.00;99.90;;;;;;5074856;28;20556;-72
2022/01/14 00:42:16;;;;;;;97.63;42.37;;;-3.10;99.90;;;;;;5074552;28;20199;-72
2022/01/14 00:44:43;;;;;;;91.43;42.30;;;-3.00;99.90;;;;;;5074779;28;20196;-72
2022/01/14 00:47:09;;;;;;;103.90;43.93;;;-3.10;99.90;;;;;;5074448;28;20261;-74
2022/01/14 00:49:36;;;;;;;103.63;42.60;;;-3.10;99.90;;;;;;5074553;28;20604;-72
2022/01/14 00:52:04;;;;;;;101.37;42.90;;;-3.10;99.90;;;;;;5074719;28;20196;-73
2022/01/14 00:54:30;;;;;;;106.57;44.10;;;-3.10;99.90;;;;;;5073547;28;20228;-73
2022/01/14 00:57:14;;;;;;;101.67;45.47;;;-3.10;99.90;;;;;;5074271;28;20198;-73
2022/01/14 00:59:40;;;;;;;104.00;42.97;;;-3.00;99.90;;;;;;5074180;28;20199;-73
2022/01/14 01:02:07;;;;;;;99.37;42.37;;;-3.00;99.90;;;;;;5074227;28;20214;-73
2022/01/14 01:04:38;;;;;;;111.03;45.33;;;-3.00;99.90;;;;;;5074348;28;20254;-72
2022/01/14 01:07:08;;;;;;;100.07;43.83;;;-3.00;99.90;;;;;;5074061;28;20204;-73
2022/01/14 01:09:36;;;;;;;96.90;42.30;;;-3.10;99.90;;;;;;5074162;28;20715;-73
2022/01/14 01:12:10;;;;;;;110.17;44.07;;;-3.00;99.90;;;;;;5073951;28;20196;-73
2022/01/14 01:14:43;;;;;;;100.70;43.90;;;-3.00;99.90;;;;;;5073671;28;20278;-73
2022/01/14 01:17:10;;;;;;;105.90;43.57;;;-3.00;99.90;;;;;;5074382;28;20199;-73
2022/01/14 01:19:36;;;;;;;111.43;45.67;;;-2.90;99.90;;;;;;5074024;28;20257;-73
2022/01/14 01:22:04;;;;;;;111.80;44.60;;;-3.00;99.90;;;;;;5074205;28;20733;-73
2022/01/14 01:24:30;;;;;;;121.10;45.80;;;-3.00;99.90;;;;;;5074806;28;20246;-73
2022/01/14 01:26:57;;;;;;;119.43;45.17;;;-3.00;99.90;;;;;;5074614;28;20201;-73
2022/01/14 01:29:44;;;;;;;99.50;43.40;;;-3.00;99.90;;;;;;5075378;28;20244;-73
2022/01/14 01:32:11;;;;;;;110.07;43.67;;;-3.00;99.90;;;;;;5075866;28;20200;-72
2022/01/14 01:34:37;;;;;;;107.53;43.33;;;-3.10;99.90;;;;;;5074812;28;20653;-73
2022/01/14 01:37:05;;;;;;;107.23;45.77;;;-3.10;99.90;;;;;;5075350;28;20269;-73
2022/01/14 01:39:34;;;;;;;104.70;44.43;;;-3.10;99.90;;;;;;5075105;28;20202;-73
2022/01/14 01:42:05;;;;;;;117.30;45.53;;;-3.10;99.90;;;;;;5074687;28;20212;-73
2022/01/14 01:44:35;;;;;;;118.93;46.83;;;-3.00;99.90;;;;;;5074794;28;20257;-73
2022/01/14 01:47:01;;;;;;;114.77;45.47;;;-3.00;99.90;;;;;;5074400;28;20249;-73
2022/01/14 01:49:30;;;;;;;110.63;44.87;;;-3.00;99.90;;;;;;5074045;28;20205;-73
2022/01/14 01:51:58;;;;;;;113.17;44.07;;;-3.00;99.90;;;;;;5074190;28;20204;-73
2022/01/14 01:54:26;;;;;;;114.30;43.60;;;-3.10;99.90;;;;;;5074018;28;20231;-73
2022/01/14 01:56:53;;;;;;;117.83;46.43;;;-3.20;99.90;;;;;;5073794;28;20259;-73
2022/01/14 01:59:21;;;;;;;111.93;45.40;;;-3.30;99.90;;;;;;5073439;28;20252;-73
2022/01/14 02:01:51;;;;;;;106.90;42.70;;;-3.20;99.90;;;;;;5073287;28;20653;-73
2022/01/14 02:04:18;;;;;;;104.50;43.03;;;-3.30;99.90;;;;;;5073790;28;20199;-73
2022/01/14 02:06:45;;;;;;;118.23;45.40;;;-3.30;99.90;;;;;;5073360;28;20208;-73
2022/01/14 02:09:12;;;;;;;107.23;43.83;;;-3.20;99.90;;;;;;5073612;28;20197;-73
2022/01/14 02:11:39;;;;;;;110.27;44.33;;;-3.20;99.90;;;;;;5073640;28;20265;-73
2022/01/14 02:14:14;;;;;;;115.43;44.43;;;-3.30;99.90;;;;;;5073357;28;20232;-73
2022/01/14 02:19:26;;;;;;;109.07;42.70;;;-3.30;99.90;;;;;;5072808;28;20223;-73
2022/01/14 02:22:10;;;;;;;115.80;44.33;;;-3.30;99.90;;;;;;5073710;28;20654;-73
2022/01/14 02:25:03;;;;;;;102.73;43.70;;;-3.40;99.90;;;;;;5076818;28;20213;-73
2022/01/14 02:27:30;;;;;;;124.87;45.27;;;-3.40;99.90;;;;;;5074881;28;20286;-73
2022/01/14 02:29:56;;;;;;;105.63;43.70;;;-3.40;99.90;;;;;;5074083;28;20207;-73
2022/01/14 02:32:23;;;;;;;118.60;44.77;;;-3.40;99.90;;;;;;5074028;28;20210;-73
2022/01/14 02:34:50;;;;;;;109.80;43.77;;;-3.40;99.90;;;;;;5073986;28;20221;-73
2022/01/14 02:37:20;;;;;;;108.23;46.57;;;-3.40;99.90;;;;;;5073915;28;20203;-73
2022/01/14 02:39:47;;;;;;;110.70;43.43;;;-3.40;99.90;;;;;;5073386;28;20288;-73
2022/01/14 02:42:14;;;;;;;124.00;47.37;;;-3.40;99.90;;;;;;5073815;28;20294;-73
2022/01/14 02:44:41;;;;;;;120.80;47.70;;;-3.40;99.90;;;;;;5073019;28;20207;-73
2022/01/14 02:47:08;;;;;;;123.37;48.10;;;-3.30;99.90;;;;;;5072903;28;20644;-73
2022/01/14 02:49:37;;;;;;;120.13;47.23;;;-3.20;99.90;;;;;;5073133;28;20202;-73
2022/01/14 02:52:07;;;;;;;114.40;45.23;;;-3.30;99.90;;;;;;5073283;28;20289;-73
2022/01/14 02:54:41;;;;;;;112.87;45.60;;;-3.40;99.90;;;;;;5073321;28;20227;-73
2022/01/14 02:57:09;;;;;;;108.37;45.43;;;-3.40;99.90;;;;;;5073461;28;20562;-73
2022/01/14 02:59:39;;;;;;;113.23;45.17;;;-3.50;99.90;;;;;;5073185;28;20294;-73
2022/01/14 03:02:09;;;;;;;119.13;46.93;;;-3.50;99.90;;;;;;5072823;28;20249;-73
2022/01/14 03:04:39;;;;;;;120.30;48.23;;;-3.40;99.90;;;;;;5072737;28;20283;-73
2022/01/14 03:07:08;;;;;;;113.03;45.70;;;-3.30;99.90;;;;;;5073528;28;20199;-73
2022/01/14 03:09:37;;;;;;;105.07;46.57;;;-3.50;99.90;;;;;;5073034;28;20269;-73
2022/01/14 03:12:04;;;;;;;107.73;43.97;;;-3.40;99.90;;;;;;5073097;28;20606;-73
2022/01/14 03:14:31;;;;;;;114.73;45.57;;;-3.50;99.90;;;;;;5072822;28;20267;-73
2022/01/14 03:17:00;;;;;;;123.23;49.23;;;-3.40;99.90;;;;;;5073053;28;20647;-73
2022/01/14 03:19:27;;;;;;;120.37;49.60;;;-3.30;99.90;;;;;;5079991;28;20407;-73
2022/01/14 03:22:05;;;;;;;115.43;46.27;;;-3.30;99.90;;;;;;5076682;28;20281;-73
2022/01/14 03:27:14;;;;;;;114.43;45.03;;;-3.40;99.90;;;;;;5075952;28;20225;-73
2022/01/14 03:29:40;;;;;;;116.97;45.20;;;-3.40;99.90;;;;;;5076468;28;20655;-73
2022/01/14 03:32:08;;;;;;;127.20;48.27;;;-3.40;99.90;;;;;;5076990;28;20202;-73
2022/01/14 03:34:35;;;;;;;124.33;48.00;;;-3.40;99.90;;;;;;5081647;28;20228;-73
2022/01/14 03:37:02;;;;;;;119.03;48.47;;;-3.30;99.90;;;;;;5083044;28;20262;-73
2022/01/14 03:39:29;;;;;;;109.80;46.40;;;-3.40;99.90;;;;;;5080245;28;20226;-73
2022/01/14 03:41:55;;;;;;;127.23;48.17;;;-3.30;99.90;;;;;;5079408;28;20551;-73
2022/01/14 03:44:23;;;;;;;118.67;47.63;;;-3.10;99.90;;;;;;5079185;28;20264;-73
2022/01/14 03:46:50;;;;;;;110.43;45.30;;;-3.10;99.90;;;;;;5079769;28;20205;-73
2022/01/14 03:49:17;;;;;;;113.67;45.97;;;-3.10;99.90;;;;;;5079252;28;20204;-73
2022/01/14 03:51:43;;;;;;;124.23;46.47;;;-3.00;99.90;;;;;;5080139;28;20222;-73
2022/01/14 03:54:10;;;;;;;115.23;46.93;;;-3.00;99.90;;;;;;5078726;28;20219;-73
2022/01/14 03:56:37;;;;;;;116.47;45.60;;;-3.00;99.90;;;;;;5077813;28;20209;-73
2022/01/14 03:59:04;;;;;;;116.47;46.47;;;-3.00;99.90;;;;;;5077188;28;20207;-73
2022/01/14 04:01:32;;;;;;;112.27;45.43;;;-3.00;99.90;;;;;;5076473;28;20201;-73
2022/01/14 04:03:59;;;;;;;110.20;45.17;;;-3.00;99.90;;;;;;5076025;28;20200;-73
2022/01/14 04:06:27;;;;;;;113.97;46.17;;;-2.90;99.90;;;;;;5075906;28;20198;-73
2022/01/14 04:08:54;;;;;;;117.13;47.07;;;-3.00;99.90;;;;;;5075650;28;20199;-73
2022/01/14 04:11:22;;;;;;;109.23;46.13;;;-3.10;99.90;;;;;;5075669;28;20701;-73
2022/01/14 04:13:52;;;;;;;112.97;46.73;;;-3.00;99.90;;;;;;5078643;28;20279;-73
2022/01/14 04:16:21;;;;;;;119.93;47.27;;;-3.00;99.90;;;;;;5075396;28;20289;-73
2022/01/14 04:18:51;;;;;;;108.70;45.97;;;-3.00;99.90;;;;;;5075846;28;20206;-73
2022/01/14 04:21:18;;;;;;;112.00;46.97;;;-3.00;99.90;;;;;;5075150;28;20659;-72
2022/01/14 04:23:45;;;;;;;119.27;45.80;;;-3.00;99.90;;;;;;5075327;28;20208;-73
2022/01/14 04:26:13;;;;;;;108.70;46.50;;;-3.00;99.90;;;;;;5076249;28;20222;-73
2022/01/14 04:28:40;;;;;;;112.20;46.07;;;-3.00;99.90;;;;;;5076398;28;20248;-73
2022/01/14 04:31:09;;;;;;;115.40;46.53;;;-3.00;99.90;;;;;;5075650;28;20198;-73
2022/01/14 04:33:36;;;;;;;107.83;45.83;;;-3.00;99.90;;;;;;5076032;28;20566;-72
2022/01/14 04:36:05;;;;;;;114.13;45.70;;;-3.00;99.90;;;;;;5075974;28;20248;-73
2022/01/14 04:38:33;;;;;;;109.30;44.93;;;-3.10;99.90;;;;;;5077071;28;20207;-72
2022/01/14 04:41:00;;;;;;;112.97;45.10;;;-3.10;99.90;;;;;;5078354;28;20210;-72
2022/01/14 04:43:29;;;;;;;113.67;45.90;;;-3.20;99.90;;;;;;5077497;28;20204;-73
2022/01/14 04:46:13;;;;;;;107.10;43.43;;;-3.20;99.90;;;;;;5077473;28;20564;-72
2022/01/14 04:48:40;;;;;;;102.27;44.23;;;-3.30;99.90;;;;;;5077410;28;20652;-74
2022/01/14 04:51:10;;;;;;;106.47;44.33;;;-3.20;99.90;;;;;;5077917;28;20244;-72
2022/01/14 04:53:37;;;;;;;100.33;42.90;;;-3.20;99.90;;;;;;5077731;28;20199;-72
2022/01/14 04:56:04;;;;;;;102.60;45.40;;;-3.20;99.90;;;;;;5076369;28;20228;-72
2022/01/14 04:58:31;;;;;;;103.67;44.53;;;-3.20;99.90;;;;;;5075017;28;20257;-72
2022/01/14 05:00:58;;;;;;;103.70;43.57;;;-3.20;99.90;;;;;;5074939;28;20195;-73
2022/01/14 05:03:25;;;;;;;102.60;43.77;;;-3.30;99.90;;;;;;5074491;28;20200;-73
2022/01/14 05:05:55;;;;;;;103.67;43.50;;;-3.20;99.90;;;;;;5074550;28;20671;-73
2022/01/14 05:08:26;;;;;;;107.93;42.90;;;-3.20;99.90;;;;;;5078168;28;20199;-73
2022/01/14 05:11:04;;;;;;;104.87;44.27;;;-3.20;99.90;;;;;;5074464;28;20323;-73
2022/01/14 05:13:31;;;;;;;104.67;43.67;;;-3.20;99.90;;;;;;5074654;28;20754;-73
2022/01/14 05:15:58;;;;;;;97.43;42.40;;;-3.20;99.90;;;;;;5074156;28;20227;-73
2022/01/14 05:18:25;;;;;;;107.80;44.57;;;-3.10;99.90;;;;;;5074292;28;20194;-73
2022/01/14 05:20:51;;;;;;;106.17;42.83;;;-3.20;99.90;;;;;;5074437;28;20260;-73
2022/01/14 05:23:18;;;;;;;98.67;42.77;;;-3.30;99.90;;;;;;5074197;28;20196;-73
2022/01/14 05:25:46;;;;;;;102.67;42.93;;;-3.30;99.90;;;;;;5074211;28;20237;-73
2022/01/14 05:28:13;;;;;;;96.30;41.40;;;-3.40;99.90;;;;;;5074413;28;20254;-73
2022/01/14 05:30:40;;;;;;;97.50;42.37;;;-3.40;99.90;;;;;;5074866;28;20222;-74
2022/01/14 05:33:06;;;;;;;99.13;42.77;;;-3.50;99.90;;;;;;5074198;28;20197;-74
2022/01/14 05:35:33;;;;;;;103.87;43.43;;;-3.50;99.90;;;;;;5074176;28;20302;-74
2022/01/14 05:38:00;;;;;;;98.43;42.67;;;-3.40;99.90;;;;;;5074148;28;20198;-74
2022/01/14 05:40:28;;;;;;;98.90;41.90;;;-3.40;99.90;;;;;;5073321;28;20796;-74
2022/01/14 05:42:56;;;;;;;97.10;41.57;;;-3.50;99.90;;;;;;5073674;28;20290;-74
2022/01/14 05:45:23;;;;;;;98.00;42.87;;;-3.50;99.90;;;;;;5073769;28;20197;-74
2022/01/14 05:47:49;;;;;;;99.53;42.30;;;-3.60;99.90;;;;;;5073825;28;20244;-74
2022/01/14 05:50:18;;;;;;;104.20;43.47;;;-3.60;99.90;;;;;;5074297;28;20831;-73
2022/01/14 05:52:45;;;;;;;102.10;43.63;;;-3.60;99.90;;;;;;5073935;28;20599;-75
2022/01/14 05:55:16;;;;;;;102.30;43.63;;;-3.60;99.90;;;;;;5076871;28;20219;-73
2022/01/14 05:57:43;;;;;;;112.57;42.50;;;-3.60;99.90;;;;;;5093560;28;20532;-74
2022/01/14 06:00:13;;;;;;;96.37;42.27;;;-3.60;99.90;;;;;;5094177;28;20271;-73
2022/01/14 06:02:40;;;;;;;98.37;41.20;;;-3.60;99.90;;;;;;5095828;28;20198;-74
2022/01/14 06:05:07;;;;;;;102.63;43.80;;;-3.60;99.90;;;;;;5096351;28;20201;-74
2022/01/14 06:07:34;;;;;;;105.43;42.47;;;-3.60;99.90;;;;;;5094261;28;20206;-74
2022/01/14 06:10:01;;;;;;;99.70;42.33;;;-3.60;99.90;;;;;;5093440;28;20624;-73
2022/01/14 06:12:28;;;;;;;99.67;43.63;;;-3.50;99.90;;;;;;5093982;28;20203;-77
2022/01/14 06:15:00;;;;;;;103.77;43.20;;;-3.50;99.90;;;;;;5093828;28;20217;-77
2022/01/14 06:17:28;;;;;;;104.33;42.00;;;-3.50;99.90;;;;;;5093678;28;20197;-74
2022/01/14 06:19:55;;;;;;;98.97;40.90;;;-3.50;99.90;;;;;;5093777;28;20197;-75
2022/01/14 06:22:22;;;;;;;100.87;42.27;;;-3.60;99.90;;;;;;5093873;28;20671;-73
2022/01/14 06:24:49;;;;;;;93.37;41.13;;;-3.60;99.90;;;;;;5093665;28;20667;-74
2022/01/14 06:27:16;;;;;;;93.67;40.50;;;-3.60;99.90;;;;;;5093665;28;20720;-73
2022/01/14 06:29:43;;;;;;;101.03;42.87;;;-3.60;99.90;;;;;;5091665;28;20199;-73
2022/01/14 06:32:09;;;;;;;102.43;43.10;;;-3.60;99.90;;;;;;5091292;28;20201;-73
2022/01/14 06:34:37;;;;;;;110.10;46.07;;;-3.60;99.90;;;;;;5091112;28;20262;-72
2022/01/14 06:37:04;;;;;;;112.83;45.47;;;-3.50;99.90;;;;;;5091147;28;20604;-73
2022/01/14 06:39:31;;;;;;;117.67;49.10;;;-3.40;99.90;;;;;;5091032;28;20596;-73
2022/01/14 06:41:58;;;;;;;102.07;44.20;;;-3.50;99.90;;;;;;5091133;28;20198;-73
2022/01/14 06:44:24;;;;;;;112.60;45.23;;;-3.60;99.90;;;;;;5091540;28;20206;-72
2022/01/14 06:46:52;;;;;;;106.67;45.57;;;-3.60;99.90;;;;;;5091544;28;20244;-73
2022/01/14 06:49:18;;;;;;;125.87;53.37;;;-3.50;99.90;;;;;;5091249;28;20688;-73
2022/01/14 06:51:46;;;;;;;104.27;44.83;;;-3.50;99.90;;;;;;5091255;28;20203;-73
2022/01/14 06:54:13;;;;;;;105.33;44.87;;;-3.60;99.90;;;;;;5094733;28;20206;-73
2022/01/14 06:56:40;;;;;;;104.30;43.77;;;-3.60;99.90;;;;;;5095415;28;20754;-73
2022/01/14 06:59:09;;;;;;;101.73;42.83;;;-3.50;99.90;;;;;;5098866;28;20581;-73
2022/01/14 07:01:36;;;;;;;104.50;41.93;;;-3.50;99.90;;;;;;5096507;28;20297;-72
2022/01/14 07:04:03;;;;;;;107.77;44.50;;;-3.60;99.90;;;;;;5091342;28;20201;-74
2022/01/14 07:06:30;;;;;;;106.50;45.07;;;-3.60;99.90;;;;;;5092940;28;20206;-74
2022/01/14 07:08:58;;;;;;;108.37;43.40;;;-3.60;99.90;;;;;;5096750;28;20193;-73
2022/01/14 07:11:30;;;;;;;101.37;42.80;;;-3.60;99.90;;;;;;5076509;28;20227;-73
2022/01/14 07:13:56;;;;;;;98.87;42.63;;;-3.50;99.90;;;;;;5076662;28;20281;-74
2022/01/14 07:16:23;;;;;;;96.60;41.13;;;-3.50;99.90;;;;;;5076979;28;20226;-74
2022/01/14 07:18:50;;;;;;;101.43;41.47;;;-3.50;99.90;;;;;;5076976;28;20195;-74
2022/01/14 07:21:16;;;;;;;102.13;42.40;;;-3.40;99.90;;;;;;5077151;28;20226;-74
2022/01/14 07:23:43;;;;;;;103.33;42.43;;;-3.40;99.90;;;;;;5077019;28;20210;-74
2022/01/14 07:26:11;;;;;;;107.83;45.23;;;-3.40;99.90;;;;;;5076744;28;20206;-74
2022/01/14 07:28:38;;;;;;;116.00;48.57;;;-3.30;99.90;;;;;;5076716;28;20197;-74
2022/01/14 07:31:05;;;;;;;114.63;47.17;;;-3.30;99.90;;;;;;5076950;28;20662;-73
2022/01/14 07:33:31;;;;;;;116.73;46.93;;;-3.20;99.90;;;;;;5076292;28;20249;-73
2022/01/14 07:35:58;;;;;;;114.77;46.73;;;-3.20;99.90;;;;;;5076464;28;20234;-74
2022/01/14 07:38:25;;;;;;;99.87;44.57;;;-3.20;99.90;;;;;;5076365;28;20203;-74
2022/01/14 07:40:52;;;;;;;109.53;45.23;;;-3.10;99.90;;;;;;5076385;28;20214;-75
2022/01/14 07:43:21;;;;;;;98.47;43.70;;;-3.00;99.90;;;;;;5076172;28;20718;-74
2022/01/14 07:45:48;;;;;;;105.53;44.13;;;-3.00;99.90;;;;;;5079562;28;20203;-72
2022/01/14 07:48:14;;;;;;;101.60;43.13;;;-3.00;99.90;;;;;;5080354;28;20234;-72
2022/01/14 07:50:41;;;;;;;110.07;45.13;;;-3.00;99.90;;;;;;5080163;28;20194;-73
2022/01/14 07:53:08;;;;;;;113.63;46.77;;;-2.90;99.90;;;;;;5081669;28;20222;-73
2022/01/14 07:55:35;;;;;;;102.20;44.57;;;-2.80;99.90;;;;;;5079803;28;20224;-72
2022/01/14 07:58:02;;;;;;;103.10;44.80;;;-2.60;99.90;;;;;;5076399;28;20674;-72
2022/01/14 08:00:30;;;;;;;102.30;44.67;;;-2.60;99.90;;;;;;5076521;28;20247;-72
2022/01/14 08:02:58;;;;;;;102.80;44.43;;;-2.50;99.90;;;;;;5075724;28;20199;-73
2022/01/14 08:05:25;;;;;;;101.57;45.80;;;-2.40;99.90;;;;;;5076938;28;20255;-72
2022/01/14 08:07:55;;;;;;;92.63;42.23;;;-2.30;99.90;;;;;;5076387;28;20204;-72
2022/01/14 08:10:22;;;;;;;100.47;43.57;;;-2.20;99.90;;;;;;5075822;28;20232;-74
2022/01/14 08:12:48;;;;;;;102.37;42.87;;;-2.00;99.90;;;;;;5075788;28;20197;-73
2022/01/14 08:15:15;;;;;;;95.50;42.80;;;-1.90;99.90;;;;;;5075650;28;20217;-73
2022/01/14 08:17:44;;;;;;;88.93;41.97;;;-1.70;99.90;;;;;;5076345;28;20201;-72
2022/01/14 08:20:12;;;;;;;84.93;40.83;;;-1.60;99.90;;;;;;5076267;28;20208;-73
2022/01/14 08:22:38;;;;;;;88.23;41.53;;;-1.50;99.90;;;;;;5075997;28;20201;-72
2022/01/14 08:25:06;;;;;;;79.37;37.33;;;-1.40;99.90;;;;;;5075647;28;20197;-72
2022/01/14 08:27:33;;;;;;;76.60;38.27;;;-1.20;99.90;;;;;;5075420;28;20603;-73
2022/01/14 08:29:59;;;;;;;80.13;40.77;;;-1.10;99.90;;;;;;5075598;28;20205;-72
2022/01/14 08:32:26;;;;;;;74.97;38.00;;;-1.00;99.90;;;;;;5075789;28;20276;-72
2022/01/14 08:34:54;;;;;;;67.87;36.13;;;-0.90;99.90;;;;;;5075466;28;20264;-73
2022/01/14 08:37:21;;;;;;;68.03;36.03;;;-0.80;99.90;;;;;;5075232;28;20204;-72
2022/01/14 08:39:47;;;;;;;71.77;38.33;;;-0.60;99.90;;;;;;5075291;28;20201;-74
2022/01/14 08:42:15;;;;;;;62.63;33.87;;;-0.50;99.90;;;;;;5075373;28;20534;-74
2022/01/14 08:44:43;;;;;;;62.03;34.53;;;-0.30;99.90;;;;;;5075527;28;20205;-73
2022/01/14 08:47:10;;;;;;;60.33;31.27;;;-0.10;99.90;;;;;;5074851;28;20251;-73
2022/01/14 08:49:38;;;;;;;52.57;30.67;;;0.00;99.90;;;;;;5080366;28;20197;-73
2022/01/14 08:52:08;;;;;;;52.47;29.73;;;0.20;99.90;;;;;;5075300;28;20546;-73
2022/01/14 08:54:35;;;;;;;52.67;30.53;;;0.30;99.90;;;;;;5074770;28;20226;-73
2022/01/14 08:57:03;;;;;;;42.97;28.43;;;0.50;99.90;;;;;;5074608;28;20232;-72
2022/01/14 08:59:30;;;;;;;47.60;28.50;;;0.60;99.90;;;;;;5074868;28;20225;-72
2022/01/14 09:01:56;;;;;;;46.70;27.97;;;0.70;99.90;;;;;;5074990;28;20255;-72
2022/01/14 09:04:23;;;;;;;40.97;25.80;;;0.90;99.90;;;;;;5074835;28;20200;-71
2022/01/14 09:06:50;;;;;;;43.40;26.27;;;1.00;99.90;;;;;;5076122;28;20201;-72
2022/01/14 09:09:18;;;;;;;42.50;27.20;;;1.10;99.90;;;;;;5081686;28;20201;-72
2022/01/14 09:11:45;;;;;;;38.70;24.80;;;1.20;99.90;;;;;;5081779;28;20270;-72
2022/01/14 09:14:11;;;;;;;39.57;25.67;;;1.30;99.90;;;;;;5083127;28;20242;-72
2022/01/14 09:16:38;;;;;;;37.17;24.83;;;1.50;99.90;;;;;;5081968;28;20228;-73
2022/01/14 09:19:05;;;;;;;36.97;24.67;;;1.70;99.90;;;;;;5083617;28;20203;-73
2022/01/14 09:21:32;;;;;;;30.03;18.73;;;1.90;99.90;;;;;;5082516;28;20722;-71
2022/01/14 09:24:03;;;;;;;31.47;21.00;;;1.80;99.90;;;;;;5076652;28;20266;-71
2022/01/14 09:26:33;;;;;;;30.77;20.20;;;1.80;99.90;;;;;;5076400;28;20220;-73
2022/01/14 09:28:59;;;;;;;28.50;19.60;;;2.00;99.90;;;;;;5076519;28;20251;-72
2022/01/14 09:31:26;;;;;;;28.30;19.00;;;2.00;99.90;;;;;;5074998;28;20250;-72
2022/01/14 09:33:53;;;;;;;28.87;19.33;;;2.00;99.90;;;;;;5074469;28;20204;-72
2022/01/14 09:36:20;;;;;;;26.80;18.17;;;2.20;99.90;;;;;;5074125;28;20247;-72
2022/01/14 09:38:47;;;;;;;24.93;17.37;;;2.30;99.90;;;;;;5074117;28;20254;-72
2022/01/14 09:41:15;;;;;;;26.47;17.50;;;2.40;99.90;;;;;;5074552;28;20232;-72
2022/01/14 09:43:43;;;;;;;22.77;16.97;;;2.60;99.90;;;;;;5078094;28;20210;-73
2022/01/14 09:46:10;;;;;;;25.33;16.67;;;2.90;99.90;;;;;;5074226;28;20207;-73
2022/01/14 09:48:38;;;;;;;22.90;15.83;;;2.90;99.90;;;;;;5073953;28;20200;-72
2022/01/14 09:51:05;;;;;;;24.90;17.03;;;3.10;99.90;;;;;;5073860;28;20246;-72
2022/01/14 09:53:34;;;;;;;20.80;15.47;;;3.10;99.90;;;;;;5074047;28;20246;-72
2022/01/14 09:56:01;;;;;;;24.07;15.57;;;3.30;99.90;;;;;;5073684;28;20229;-73
2022/01/14 09:58:34;;;;;;;21.23;15.50;;;3.60;99.90;;;;;;5073729;28;20255;-72
2022/01/14 10:01:09;;;;;;;20.93;15.37;;;3.80;99.90;;;;;;5073891;28;20204;-72
2022/01/14 10:03:49;;;;;;;20.43;14.13;;;3.90;99.90;;;;;;5073537;28;20654;-73
2022/01/14 10:06:34;;;;;;;22.43;15.33;;;4.00;99.90;;;;;;5073664;28;20200;-71
2022/01/14 10:09:08;;;;;;;20.30;14.43;;;4.20;99.90;;;;;;5073570;28;20216;-74
2022/01/14 10:11:36;;;;;;;18.43;13.83;;;4.60;99.90;;;;;;5073561;28;20219;-72
2022/01/14 10:14:08;;;;;;;17.17;13.10;;;4.60;99.90;;;;;;5073306;28;20250;-72
2022/01/14 10:16:40;;;;;;;19.40;14.10;;;4.70;99.90;;;;;;5073254;28;20281;-72
2022/01/14 10:19:21;;;;;;;21.40;14.13;;;4.80;99.90;;;;;;5073042;28;20652;-73
2022/01/14 10:21:48;;;;;;;18.50;13.90;;;4.70;99.90;;;;;;5073440;28;20250;-73
2022/01/14 10:24:15;;;;;;;21.17;15.27;;;5.00;99.90;;;;;;5073355;28;20197;-74
2022/01/14 10:26:55;;;;;;;19.57;14.47;;;5.40;99.90;;;;;;5074566;28;20237;-73
2022/01/14 10:29:30;;;;;;;19.10;14.73;;;5.60;99.90;;;;;;5077654;28;20652;-73
2022/01/14 10:32:00;;;;;;;17.63;12.80;;;6.20;99.90;;;;;;5077578;28;20250;-73
2022/01/14 10:34:27;;;;;;;16.03;13.27;;;7.20;99.90;;;;;;5076862;28;20300;-73
2022/01/14 10:37:10;;;;;;;18.53;14.20;;;7.90;99.90;;;;;;5076439;28;20274;-73
2022/01/14 10:39:45;;;;;;;16.70;12.37;;;8.80;99.90;;;;;;5076705;28;20200;-72
2022/01/14 10:42:23;;;;;;;15.17;12.13;;;8.90;99.90;;;;;;5076553;28;20296;-72
2022/01/14 10:44:49;;;;;;;16.53;11.83;;;9.10;99.90;;;;;;5076636;28;20691;-73
2022/01/14 10:47:20;;;;;;;14.40;11.53;;;9.40;99.90;;;;;;5076556;28;20201;-73
2022/01/14 10:49:49;;;;;;;15.17;11.23;;;9.80;99.90;;;;;;5076630;28;20208;-73
2022/01/14 10:52:18;;;;;;;14.30;11.17;;;10.10;99.90;;;;;;5076232;28;20205;-73
2022/01/14 10:54:47;;;;;;;13.87;10.90;;;10.20;99.90;;;;;;5076412;28;20255;-74
2022/01/14 10:57:20;;;;;;;13.30;10.83;;;10.40;99.50;;;;;;5076069;28;20561;-73
2022/01/14 10:59:48;;;;;;;13.40;10.50;;;10.10;99.10;;;;;;5076489;28;20197;-74
2022/01/14 11:02:41;;;;;;;12.13;9.83;;;10.00;99.60;;;;;;5076977;28;20203;-74
2022/01/14 11:05:10;;;;;;;13.27;10.43;;;9.70;99.90;;;;;;5076429;28;20212;-73
2022/01/14 11:07:38;;;;;;;13.77;10.87;;;9.90;99.50;;;;;;5076240;28;20205;-74
2022/01/14 11:10:16;;;;;;;13.53;10.03;;;10.10;99.00;;;;;;5075977;28;20229;-74
2022/01/14 11:12:44;;;;;;;14.07;10.80;;;9.90;99.00;;;;;;5077015;28;20201;-74
2022/01/14 11:15:11;;;;;;;15.23;10.77;;;10.30;98.80;;;;;;5076236;28;20197;-73
2022/01/14 11:17:41;;;;;;;14.23;10.73;;;11.50;97.00;;;;;;5075744;28;20741;-74
2022/01/14 11:20:10;;;;;;;14.93;9.47;;;10.70;95.00;;;;;;5075808;28;20204;-73
2022/01/14 11:25:22;;;;;;;12.07;10.00;;;10.10;96.60;;;;;;5076246;28;20200;-74
2022/01/14 11:27:52;;;;;;;11.53;9.63;;;10.90;95.60;;;;;;5075533;28;20561;-72
2022/01/14 11:30:19;;;;;;;12.30;9.30;;;11.40;94.10;;;;;;5075745;28;20209;-72
2022/01/14 11:32:55;;;;;;;14.63;10.83;;;12.10;91.60;;;;;;5075599;28;20293;-72
2022/01/14 11:35:24;;;;;;;16.87;10.97;;;12.30;90.20;;;;;;5075640;28;20250;-72
2022/01/14 11:37:51;;;;;;;12.43;9.73;;;12.40;87.50;;;;;;5074911;28;20284;-72
2022/01/14 11:40:19;;;;;;;12.90;10.67;;;13.00;84.60;;;;;;5075559;28;20250;-72
2022/01/14 11:42:47;;;;;;;13.77;10.23;;;13.00;82.90;;;;;;5075411;28;20652;-73
2022/01/14 11:45:15;;;;;;;12.27;10.63;;;13.60;77.50;;;;;;5075307;28;20201;-73
2022/01/14 11:48:01;;;;;;;12.57;10.07;;;13.40;76.90;;;;;;5075039;28;20699;-73
2022/01/14 11:50:44;;;;;;;14.27;10.17;;;13.80;75.20;;;;;;5075078;28;20652;-72
2022/01/14 11:53:43;;;;;;;12.47;10.40;;;13.90;73.10;;;;;;5075108;28;20727;-73
2022/01/14 11:56:44;;;;;;;11.13;9.17;;;14.20;69.70;;;;;;5075249;28;20217;-72
2022/01/14 11:59:46;;;;;;;11.80;9.73;;;14.30;63.60;;;;;;5072754;28;20196;-72
2022/01/14 12:02:33;;;;;;;12.50;8.87;;;13.50;65.30;;;;;;5072100;28;20666;-72
2022/01/14 12:05:05;;;;;;;10.53;8.43;;;12.90;66.40;;;;;;5072442;28;20204;-73
2022/01/14 12:07:31;;;;;;;9.13;8.00;;;12.90;65.70;;;;;;5072489;28;20196;-73
2022/01/14 12:10:03;;;;;;;10.23;8.90;;;13.20;66.50;;;;;;5071988;28;20220;-72
2022/01/14 12:12:33;;;;;;;11.80;8.43;;;13.50;65.10;;;;;;5072199;28;20204;-72
2022/01/14 12:15:02;;;;;;;10.57;8.10;;;13.60;63.80;;;;;;5072142;28;20254;-72
2022/01/14 12:17:35;;;;;;;12.03;8.47;;;14.00;61.50;;;;;;5072133;28;20298;-72
2022/01/14 12:20:10;;;;;;;13.93;7.95;;;14.00;60.10;;;;;;5072237;28;20193;-72
2022/01/14 12:22:37;;;;;;;10.50;8.93;;;15.20;57.20;;;;;;5072036;28;20205;-72
2022/01/14 12:25:06;;;;;;;11.40;8.55;;;14.60;56.30;;;;;;5071839;28;20201;-72
2022/01/14 12:27:48;;;;;;;11.60;9.27;;;16.00;55.30;;;;;;5072030;28;20667;-72
2022/01/14 12:30:28;;;;;;;14.70;9.35;;;15.00;53.80;;;;;;5072052;28;20228;-72
2022/01/14 12:32:56;;;;;;;12.10;9.25;;;15.90;53.00;;;;;;5072081;28;20602;-74
2022/01/14 12:35:33;;;;;;;13.57;9.15;;;16.30;50.30;;;;;;5074753;28;20203;-73
2022/01/14 12:38:01;;;;;;;11.15;9.18;;;16.80;48.80;;;;;;5086035;28;20304;-72
2022/01/14 12:40:31;;;;;;;14.52;9.43;;;15.80;49.40;;;;;;5094664;28;20223;-72
2022/01/14 12:43:00;;;;;;;10.10;8.70;;;16.80;47.80;;;;;;5094475;28;20566;-72
2022/01/14 12:45:32;;;;;;;9.30;8.38;;;16.40;48.10;;;;;;5094610;28;20525;-73
2022/01/14 12:48:28;;;;;;;12.75;8.95;;;16.70;47.10;;;;;;5094054;28;20197;-74
2022/01/14 12:51:04;;;;;;;9.43;8.05;;;16.70;44.40;;;;;;5093637;28;20200;-73